Time;durP1;ratioP1;P1;durP2;ratioP2;P2;SDS_P1;SDS_P2;PMS_P1;PMS_P2;Temp;Humidity;BMP_temperature;BMP_pressure;BME280_temperature;BME280_humidity;BME280_pressure;Samples;Min_cycle;Max_cycle;Signal;HPM_P1;HPM_P2
2021/05/06 00:14:32;;;;;;;4.88;1.33;;;;;;;21.90;43.45;100800.03;4971253;28;20054;-64
2021/05/06 00:31:20;;;;;;;6.38;1.58;;;;;;;21.98;43.09;100775.66;4971416;28;20385;-65
2021/05/06 00:33:47;;;;;;;5.80;1.45;;;;;;;22.04;42.69;100768.28;4972522;28;20138;-65
2021/05/06 00:36:15;;;;;;;4.78;0.88;;;;;;;22.08;42.29;100769.03;4972186;28;20062;-65
2021/05/06 00:38:45;;;;;;;5.60;1.38;;;;;;;22.13;41.70;100770.66;4972000;28;20046;-65
2021/05/06 00:41:28;;;;;;;5.22;1.15;;;;;;;22.19;41.44;100762.38;4971628;28;20047;-65
2021/05/06 00:55:01;;;;;;;6.10;1.60;;;;;;;22.17;40.63;100729.31;4971398;28;20101;-65
2021/05/06 00:57:34;;;;;;;6.00;0.88;;;;;;;22.20;40.08;100723.81;4971731;28;20031;-65
2021/05/06 01:05:36;;;;;;;8.45;1.08;;;;;;;22.31;39.00;100701.97;4964008;28;20042;-65
2021/05/06 01:08:09;;;;;;;10.32;2.20;;;;;;;22.25;39.64;100697.63;4972046;28;20126;-65
2021/05/06 01:13:25;;;;;;;7.80;1.25;;;;;;;22.19;40.43;100680.81;4970656;28;20083;-65
2021/05/06 01:15:53;;;;;;;8.63;1.52;;;;;;;22.22;40.46;100678.94;4971774;28;20045;-65
2021/05/06 01:18:20;;;;;;;7.68;1.30;;;;;;;22.24;40.40;100673.50;4971498;28;20122;-67
2021/05/06 01:20:51;;;;;;;10.88;1.40;;;;;;;22.27;40.17;100671.56;4971501;28;20395;-65
2021/05/06 01:23:18;;;;;;;9.77;2.10;;;;;;;22.27;40.25;100682.34;4975101;28;20047;-65
2021/05/06 01:25:52;;;;;;;8.68;2.28;;;;;;;22.16;40.36;100679.13;4975490;28;20035;-65
2021/05/06 01:28:21;;;;;;;9.10;1.37;;;;;;;22.23;40.59;100674.44;4975738;28;20049;-65
2021/05/06 01:30:54;;;;;;;10.60;1.15;;;;;;;22.32;40.23;100681.31;4974689;28;20276;-65
2021/05/06 01:33:28;;;;;;;7.43;1.20;;;;;;;22.28;40.41;100685.91;4975835;28;20031;-65
2021/05/06 01:35:59;;;;;;;11.77;2.43;;;;;;;22.38;40.11;100689.19;4975972;28;20679;-66
2021/05/06 01:41:34;;;;;;;8.75;1.75;;;;;;;22.50;40.48;100695.03;4970611;28;20054;-65
2021/05/06 01:44:05;;;;;;;12.60;2.08;;;;;;;22.53;41.46;100694.91;4975293;28;20069;-65
2021/05/06 01:46:52;;;;;;;10.57;2.28;;;;;;;22.59;42.36;100689.28;4974586;28;20050;-65
2021/05/06 01:57:37;;;;;;;14.70;1.80;;;;;;;22.76;44.69;100669.91;4974458;28;20484;-66
2021/05/06 02:00:10;;;;;;;11.63;2.55;;;;;;;22.83;46.40;100657.09;4961814;28;20054;-65
2021/05/06 02:02:37;;;;;;;11.02;2.17;;;;;;;22.87;47.60;100658.72;4974332;28;20034;-65
2021/05/06 02:05:06;;;;;;;11.40;2.08;;;;;;;22.94;48.24;100654.88;4973877;28;20122;-65
2021/05/06 02:07:37;;;;;;;10.27;2.00;;;;;;;22.99;48.75;100666.34;4973505;28;20117;-65
2021/05/06 02:10:06;;;;;;;14.30;2.35;;;;;;;23.02;49.61;100655.50;4974425;28;20047;-65
2021/05/06 02:12:33;;;;;;;11.52;2.25;;;;;;;23.02;49.98;100664.44;4973905;28;20074;-65
2021/05/06 02:15:05;;;;;;;13.60;2.58;;;;;;;23.01;50.12;100664.50;4973158;28;20030;-65
2021/05/06 02:17:32;;;;;;;13.25;2.15;;;;;;;22.97;50.40;100674.47;4973649;28;20823;-65
2021/05/06 02:19:59;;;;;;;12.15;2.65;;;;;;;22.95;51.22;100684.47;4973946;28;20038;-65
2021/05/06 02:22:26;;;;;;;10.63;2.53;;;;;;;22.92;51.63;100695.31;4974038;28;20046;-65
2021/05/06 02:24:55;;;;;;;10.32;2.05;;;;;;;22.90;51.94;100691.84;4973902;28;20125;-64
2021/05/06 02:27:22;;;;;;;14.20;2.47;;;;;;;22.83;52.48;100686.72;4973705;28;20126;-65
2021/05/06 02:29:49;;;;;;;13.55;2.83;;;;;;;22.78;52.92;100686.84;4974183;28;20071;-66
2021/05/06 02:32:16;;;;;;;11.38;2.38;;;;;;;22.73;53.65;100696.91;4973775;28;20041;-65
2021/05/06 02:34:45;;;;;;;9.02;2.53;;;;;;;22.67;54.09;100708.75;4972948;28;20053;-65
2021/05/06 02:37:12;;;;;;;10.35;2.25;;;;;;;22.62;54.35;100716.13;4974085;28;20043;-65
2021/05/06 02:39:39;;;;;;;17.45;3.30;;;;;;;22.59;53.95;100721.59;4973309;28;20066;-65
2021/05/06 02:42:08;;;;;;;13.90;2.92;;;;;;;22.56;53.93;100728.91;4972999;28;20058;-65
2021/05/06 02:44:36;;;;;;;11.02;2.35;;;;;;;22.53;54.33;100729.00;4972371;28;20043;-66
2021/05/06 02:47:04;;;;;;;13.25;3.05;;;;;;;22.48;54.28;100728.28;4973879;28;20121;-65
2021/05/06 02:49:31;;;;;;;13.98;2.20;;;;;;;22.44;54.38;100738.28;4972261;28;20109;-65
2021/05/06 02:52:04;;;;;;;17.30;2.67;;;;;;;22.40;54.07;100741.97;4972022;28;20078;-65
2021/05/06 02:54:37;;;;;;;15.85;3.20;;;;;;;22.37;53.72;100746.59;4967436;28;20042;-65
2021/05/06 02:57:10;;;;;;;12.65;2.80;;;;;;;22.38;53.91;100745.66;4967822;28;20039;-65
2021/05/06 03:05:06;;;;;;;14.27;2.40;;;;;;;22.36;54.74;100742.16;4973687;28;20042;-65
2021/05/06 03:07:34;;;;;;;16.05;2.88;;;;;;;22.34;54.74;100744.88;4973558;28;20050;-65
2021/05/06 03:10:08;;;;;;;18.35;3.33;;;;;;;22.34;54.92;100749.38;4972753;28;20134;-65
2021/05/06 03:12:58;;;;;;;17.42;2.83;;;;;;;22.35;54.48;100743.06;4958096;28;20134;-65
2021/05/06 03:21:25;;;;;;;14.48;2.60;;;;;;;22.39;53.73;100748.28;4972787;28;20038;-65
2021/05/06 03:23:53;;;;;;;12.18;2.45;;;;;;;22.29;53.61;100754.03;4972955;28;20513;-65
2021/05/06 03:26:22;;;;;;;12.27;2.75;;;;;;;22.15;52.04;100744.59;4973284;28;20060;-66
2021/05/06 03:28:52;;;;;;;12.32;2.00;;;;;;;22.05;50.07;100736.88;4973799;28;20043;-65
2021/05/06 03:31:44;;;;;;;13.75;2.88;;;;;;;22.00;49.54;100734.31;4973313;28;20166;-66
2021/05/06 03:42:26;;;;;;;15.45;2.60;;;;;;;21.97;50.21;100747.88;4960619;28;20031;-65
2021/05/06 03:45:12;;;;;;;13.88;2.22;;;;;;;21.94;49.82;100747.06;4971713;28;20121;-65
2021/05/06 04:15:33;;;;;;;10.85;2.17;;;;;;;22.65;45.10;100782.41;4961408;28;20051;-66
2021/05/06 04:18:08;;;;;;;18.63;2.47;;;;;;;22.85;44.83;100788.00;4972113;28;20049;-65
2021/05/06 04:37:04;;;;;;;13.15;2.67;;;;;;;23.74;45.63;100820.75;4970493;28;20039;-65
2021/05/06 04:39:45;;;;;;;20.02;3.25;;;;;;;23.90;45.66;100818.34;4968123;28;20053;-64
2021/05/06 05:04:25;;;;;;;18.35;2.60;;;;;;;25.56;44.07;100828.50;4969898;28;20049;-65
2021/05/06 05:06:55;;;;;;;13.10;2.80;;;;;;;25.69;44.18;100817.09;4961677;28;20041;-65
2021/05/06 05:12:26;;;;;;;12.30;2.33;;;;;;;25.85;43.65;100811.88;4943292;28;20487;-65
2021/05/06 05:15:06;;;;;;;15.95;2.78;;;;;;;26.32;42.91;100812.31;4975894;28;20042;-65
2021/05/06 05:17:45;;;;;;;13.63;2.50;;;;;;;26.78;42.37;100805.50;4975014;28;20418;-65
2021/05/06 05:20:17;;;;;;;12.00;2.65;;;;;;;27.06;41.90;100798.69;4968262;28;20093;-65
2021/05/06 05:25:45;;;;;;;14.27;3.75;;;;;;;27.84;39.35;100796.28;4928978;28;20448;-66
2021/05/06 05:28:12;;;;;;;19.20;2.55;;;;;;;28.19;38.89;100807.94;4961898;28;20480;-65
2021/05/06 05:30:40;;;;;;;14.57;2.53;;;;;;;28.39;39.37;100813.09;4970317;28;20117;-66
2021/05/06 05:33:10;;;;;;;16.58;2.92;;;;;;;28.68;38.62;100807.81;4971005;28;20118;-65
2021/05/06 05:35:41;;;;;;;14.20;2.70;;;;;;;29.00;37.77;100808.66;4971823;28;20498;-66
2021/05/06 05:38:15;;;;;;;13.57;3.13;;;;;;;29.27;37.36;100809.72;4968437;28;20054;-66
2021/05/06 05:40:48;;;;;;;10.88;2.72;;;;;;;29.59;36.95;100813.19;4970410;28;20054;-66
2021/05/06 05:43:30;;;;;;;19.50;3.28;;;;;;;29.62;36.91;100822.03;4970948;28;20046;-66
2021/05/06 05:56:54;;;;;;;16.10;2.88;;;;;;;30.76;33.99;100836.44;4969987;28;20042;-66
2021/05/06 05:59:21;;;;;;;18.42;2.88;;;;;;;30.98;34.06;100844.03;4970112;28;20402;-66
2021/05/06 06:01:48;;;;;;;13.98;2.47;;;;;;;31.26;32.40;100851.22;4970916;28;20062;-66
2021/05/06 06:04:16;;;;;;;15.50;3.17;;;;;;;31.57;31.18;100848.09;4971167;28;20119;-65
2021/05/06 06:06:43;;;;;;;13.90;3.00;;;;;;;31.84;30.22;100852.59;4971524;28;20521;-66
2021/05/06 06:09:10;;;;;;;15.38;3.92;;;;;;;32.04;29.73;100838.38;4973999;28;20043;-65
2021/05/06 06:11:38;;;;;;;21.10;4.47;;;;;;;32.15;28.79;100837.66;4973726;28;20039;-65
2021/05/06 06:14:08;;;;;;;16.88;3.33;;;;;;;32.32;28.92;100848.22;4974589;28;20041;-66
2021/05/06 06:16:37;;;;;;;19.38;3.38;;;;;;;32.45;28.67;100860.00;4972945;28;20057;-65
2021/05/06 06:19:05;;;;;;;19.30;3.15;;;;;;;32.43;28.32;100851.91;4955823;28;20519;-65
2021/05/06 06:21:39;;;;;;;17.42;2.50;;;;;;;32.40;28.25;100857.59;4960297;28;20131;-66
2021/05/06 06:24:08;;;;;;;19.67;3.50;;;;;;;32.53;28.27;100854.84;4973419;28;20046;-66
2021/05/06 06:26:35;;;;;;;15.40;2.67;;;;;;;32.84;27.81;100850.69;4973220;28;20047;-66
2021/05/06 06:29:05;;;;;;;17.08;2.60;;;;;;;33.04;27.82;100863.72;4974478;28;20066;-66
2021/05/06 06:31:39;;;;;;;23.75;5.07;;;;;;;33.06;27.60;100858.13;4974364;28;20035;-65
2021/05/06 06:34:07;;;;;;;22.02;3.58;;;;;;;32.88;27.52;100871.38;4972595;28;20122;-65
2021/05/06 06:36:35;;;;;;;20.92;3.00;;;;;;;32.80;27.50;100866.47;4974044;28;20047;-65
2021/05/06 06:39:03;;;;;;;18.95;3.97;;;;;;;32.39;27.96;100871.38;4972316;28;20574;-65
2021/05/06 06:41:30;;;;;;;19.10;3.15;;;;;;;32.17;27.96;100874.81;4973630;28;20121;-66
2021/05/06 06:44:00;;;;;;;15.35;2.47;;;;;;;32.30;27.59;100877.50;4973681;28;20042;-65
2021/05/06 06:46:27;;;;;;;15.95;2.50;;;;;;;32.40;28.22;100878.59;4973801;28;20496;-65
2021/05/06 06:48:55;;;;;;;18.40;2.95;;;;;;;32.40;28.56;100884.94;4974469;28;20491;-65
2021/05/06 06:51:23;;;;;;;19.70;3.00;;;;;;;32.53;28.36;100889.50;4974385;28;20067;-65
2021/05/06 06:53:50;;;;;;;21.10;3.30;;;;;;;32.38;28.06;100897.84;4974042;28;20042;-65
2021/05/06 06:56:18;;;;;;;15.80;2.53;;;;;;;32.14;28.21;100901.50;4962837;28;20048;-65
2021/05/06 06:58:49;;;;;;;15.40;2.40;;;;;;;31.99;28.17;100914.34;4954651;28;20130;-65
2021/05/06 07:01:16;;;;;;;18.85;2.50;;;;;;;31.53;29.04;100905.75;4954245;28;20098;-65
2021/05/06 07:03:43;;;;;;;16.02;3.25;;;;;;;31.37;29.55;100913.25;4968634;28;20066;-66
2021/05/06 07:06:12;;;;;;;14.93;2.38;;;;;;;31.37;29.99;100914.16;4973556;28;20530;-65
2021/05/06 07:08:42;;;;;;;10.65;2.22;;;;;;;31.51;30.04;100915.88;4972547;28;20039;-66
2021/05/06 07:11:10;;;;;;;20.80;2.90;;;;;;;31.53;29.77;100930.31;4973410;28;20459;-66
2021/05/06 07:13:37;;;;;;;14.55;3.15;;;;;;;31.71;30.12;100915.41;4973839;28;20047;-65
2021/05/06 07:16:07;;;;;;;11.93;2.58;;;;;;;32.17;29.99;100929.44;4973129;28;20091;-65
2021/05/06 07:18:36;;;;;;;11.60;3.05;;;;;;;32.56;29.59;100924.84;4974022;28;20057;-66
2021/05/06 07:21:05;;;;;;;11.38;2.50;;;;;;;32.95;29.29;100941.03;4973498;28;20122;-65
2021/05/06 07:23:35;;;;;;;14.35;2.45;;;;;;;33.18;29.37;100947.50;4972980;28;20086;-66
2021/05/06 07:26:04;;;;;;;15.75;2.47;;;;;;;33.43;29.11;100954.75;4973007;28;20065;-66
2021/05/06 07:28:33;;;;;;;11.70;2.28;;;;;;;33.15;29.02;100943.13;4972234;28;20055;-66
2021/05/06 07:31:02;;;;;;;19.63;3.95;;;;;;;32.74;29.84;100938.06;4972893;28;20038;-65
2021/05/06 07:33:30;;;;;;;18.50;2.78;;;;;;;32.40;29.64;100934.16;4972309;28;20487;-66
2021/05/06 07:35:59;;;;;;;10.38;2.22;;;;;;;32.30;30.25;100949.44;4971366;28;20494;-65
2021/05/06 07:38:27;;;;;;;15.18;2.65;;;;;;;32.31;29.93;100956.66;4973276;28;20069;-66
2021/05/06 07:40:56;;;;;;;10.60;1.90;;;;;;;32.39;29.86;100969.78;4972780;28;20130;-65
2021/05/06 07:43:24;;;;;;;12.52;2.40;;;;;;;32.52;29.70;100964.31;4972487;28;20043;-66
2021/05/06 07:45:51;;;;;;;13.60;2.33;;;;;;;32.73;29.39;100969.13;4973550;28;20047;-65
2021/05/06 07:48:18;;;;;;;20.42;3.10;;;;;;;32.69;29.03;100978.53;4973347;28;20049;-67
2021/05/06 07:50:46;;;;;;;14.02;2.60;;;;;;;32.66;29.21;100988.78;4973144;28;20061;-66
2021/05/06 07:53:15;;;;;;;13.65;2.33;;;;;;;32.45;28.95;100992.09;4972343;28;20086;-66
2021/05/06 07:55:43;;;;;;;16.35;2.65;;;;;;;32.65;29.34;100976.97;4970765;28;20045;-66
2021/05/06 07:58:11;;;;;;;16.42;2.88;;;;;;;32.88;29.33;100979.94;4963404;28;20065;-66
2021/05/06 08:00:38;;;;;;;15.57;2.88;;;;;;;32.93;30.29;100969.50;4972156;28;20090;-66
2021/05/06 08:03:07;;;;;;;15.27;2.72;;;;;;;32.85;31.24;100986.47;4972177;28;20105;-66
2021/05/06 08:05:35;;;;;;;19.63;3.65;;;;;;;32.89;31.21;100989.84;4971785;28;20046;-65
2021/05/06 08:08:02;;;;;;;16.08;2.97;;;;;;;33.00;31.12;100996.31;4972815;28;20158;-65
2021/05/06 08:10:29;;;;;;;25.15;3.42;;;;;;;32.97;30.88;100998.38;4972280;28;20130;-65
2021/05/06 08:12:57;;;;;;;13.65;1.95;;;;;;;32.99;31.14;101008.22;4972652;28;20039;-65
2021/05/06 08:15:26;;;;;;;19.83;3.38;;;;;;;32.68;31.47;101033.34;4973293;28;20047;-66
2021/05/06 08:17:54;;;;;;;14.85;3.30;;;;;;;32.23;31.79;101054.72;4972617;28;20578;-66
2021/05/06 08:20:23;;;;;;;16.50;2.90;;;;;;;31.78;32.13;101055.16;4973119;28;20381;-65
2021/05/06 08:22:50;;;;;;;18.63;2.67;;;;;;;31.44;32.23;101062.84;4972848;28;20495;-66
2021/05/06 08:25:19;;;;;;;12.07;2.55;;;;;;;31.36;32.03;101059.78;4972149;28;20061;-66
2021/05/06 08:27:46;;;;;;;16.95;2.78;;;;;;;31.70;31.30;101076.66;4972930;28;20038;-65
2021/05/06 08:30:15;;;;;;;19.05;3.03;;;;;;;31.89;31.10;101086.25;4972177;28;20097;-65
2021/05/06 08:32:44;;;;;;;16.05;2.70;;;;;;;31.99;30.79;101090.06;4972133;28;20066;-66
2021/05/06 08:35:12;;;;;;;22.13;2.85;;;;;;;32.29;30.22;101121.78;4972644;28;20403;-65
2021/05/06 08:37:39;;;;;;;17.45;2.70;;;;;;;32.53;29.58;101128.28;4972527;28;20054;-66
2021/05/06 08:40:08;;;;;;;15.85;2.45;;;;;;;32.52;29.43;101123.78;4971977;28;20538;-65
2021/05/06 08:42:36;;;;;;;16.25;2.45;;;;;;;32.22;29.57;101142.31;4972590;28;20046;-65
2021/05/06 08:45:04;;;;;;;18.27;3.65;;;;;;;32.31;29.64;101142.56;4971992;28;20045;-65
2021/05/06 08:47:32;;;;;;;15.60;2.95;;;;;;;32.28;29.60;101158.31;4971994;28;20435;-65
2021/05/06 08:50:01;;;;;;;11.32;2.53;;;;;;;32.54;29.63;101156.50;4972501;28;20085;-65
2021/05/06 08:52:28;;;;;;;13.63;2.80;;;;;;;32.08;30.62;101165.09;4972367;28;20384;-66
2021/05/06 08:54:57;;;;;;;9.93;2.70;;;;;;;31.78;31.08;101165.28;4971249;28;20043;-65
2021/05/06 08:57:26;;;;;;;14.68;2.78;;;;;;;31.63;30.86;101179.97;4971603;28;20122;-66
2021/05/06 08:59:53;;;;;;;14.30;3.03;;;;;;;31.80;30.75;101174.25;4972210;28;20031;-67
2021/05/06 09:02:22;;;;;;;14.05;2.20;;;;;;;32.27;30.35;101190.22;4972443;28;20088;-66
2021/05/06 09:04:49;;;;;;;15.75;2.50;;;;;;;32.46;29.72;101189.84;4971825;28;20050;-66
2021/05/06 09:07:17;;;;;;;31.58;3.78;;;;;;;32.23;30.12;101164.06;4971756;28;20150;-66
2021/05/06 09:09:49;;;;;;;14.48;2.28;;;;;;;31.78;30.58;101142.53;4971928;28;20050;-66
2021/05/06 09:12:18;;;;;;;15.88;2.38;;;;;;;31.37;31.15;101148.88;4970186;28;20039;-65
2021/05/06 09:14:47;;;;;;;13.68;2.22;;;;;;;31.16;31.57;101128.41;4972237;28;20035;-66
2021/05/06 09:17:30;;;;;;;15.70;2.50;;;;;;;31.12;31.70;101102.28;4972305;28;20054;-66
2021/05/06 09:20:07;;;;;;;17.00;2.40;;;;;;;31.00;31.58;101113.97;4972132;28;20047;-65
2021/05/06 09:22:37;;;;;;;18.23;3.72;;;;;;;30.65;32.27;101122.53;4971197;28;20035;-65
2021/05/06 09:25:23;;;;;;;19.98;3.55;;;;;;;30.63;32.74;101137.22;4972063;28;20063;-66
2021/05/06 09:28:06;;;;;;;14.13;2.53;;;;;;;30.84;32.35;101172.22;4957936;28;20054;-66
2021/05/06 09:30:35;;;;;;;15.68;2.88;;;;;;;31.16;32.08;101174.81;4971236;28;20130;-66
2021/05/06 09:33:03;;;;;;;12.57;1.88;;;;;;;31.35;31.67;101174.50;4971178;28;20129;-65
2021/05/06 09:35:30;;;;;;;14.45;2.28;;;;;;;31.53;31.11;101176.91;4971318;28;20526;-65
2021/05/06 09:37:58;;;;;;;13.25;2.25;;;;;;;31.88;30.90;101171.00;4970980;28;20039;-65
2021/05/06 09:40:25;;;;;;;12.98;2.42;;;;;;;32.22;30.70;101165.06;4968840;28;20126;-66
2021/05/06 09:42:55;;;;;;;12.15;2.33;;;;;;;32.40;30.17;101117.31;4964229;28;20035;-65
2021/05/06 09:45:23;;;;;;;14.38;2.75;;;;;;;32.29;29.93;101092.59;4970947;28;20043;-65
2021/05/06 09:48:15;;;;;;;12.65;2.15;;;;;;;32.18;29.08;101037.78;4973733;28;20162;-65
2021/05/06 09:50:44;;;;;;;12.40;2.35;;;;;;;32.02;29.62;101028.91;4964062;28;20047;-65
2021/05/06 09:53:15;;;;;;;10.32;1.92;;;;;;;32.17;29.59;101022.38;4973490;28;20117;-65
2021/05/06 09:55:43;;;;;;;12.27;2.03;;;;;;;32.13;29.54;101011.75;4974170;28;20174;-65
2021/05/06 09:58:22;;;;;;;11.98;2.47;;;;;;;31.92;29.34;101036.84;4949497;28;20161;-65
2021/05/06 10:00:51;;;;;;;12.93;1.83;;;;;;;31.37;29.52;101068.84;4971212;28;20050;-66
2021/05/06 10:03:20;;;;;;;11.02;2.35;;;;;;;31.11;30.03;101098.72;4973129;28;20109;-66
2021/05/06 10:05:49;;;;;;;12.45;2.67;;;;;;;31.08;29.67;101107.09;4972035;28;20209;-65
2021/05/06 10:08:19;;;;;;;12.57;2.55;;;;;;;31.16;29.78;101132.03;4956819;28;20398;-65
2021/05/06 10:10:46;;;;;;;9.75;1.88;;;;;;;31.44;29.20;101144.72;4962816;28;20117;-65
2021/05/06 10:13:13;;;;;;;12.38;2.28;;;;;;;31.73;29.22;101129.22;4972726;28;20053;-66
2021/05/06 10:15:42;;;;;;;11.68;2.38;;;;;;;31.92;28.80;101107.00;4971358;28;20070;-65
2021/05/06 10:18:10;;;;;;;16.52;2.45;;;;;;;31.97;28.56;101066.56;4972785;28;20522;-66
2021/05/06 10:20:37;;;;;;;12.40;2.28;;;;;;;31.92;28.57;101072.34;4973282;28;20066;-65
2021/05/06 10:23:04;;;;;;;12.50;2.33;;;;;;;31.75;29.14;101099.94;4962904;28;20047;-65
2021/05/06 10:25:34;;;;;;;13.68;2.30;;;;;;;31.90;29.29;101103.50;4965084;28;20058;-65
2021/05/06 10:28:01;;;;;;;8.68;2.05;;;;;;;32.14;29.15;101118.25;4964528;28;20101;-66
2021/05/06 10:30:29;;;;;;;14.45;2.58;;;;;;;32.45;29.12;101100.59;4968916;28;20158;-66
2021/05/06 10:32:56;;;;;;;10.57;2.47;;;;;;;32.55;28.85;101089.88;4971040;28;20118;-65
2021/05/06 10:35:26;;;;;;;14.57;2.28;;;;;;;32.57;28.15;101086.03;4972371;28;20077;-66
2021/05/06 10:37:55;;;;;;;14.60;1.60;;;;;;;32.47;28.45;101086.81;4972481;28;20073;-68
2021/05/06 10:40:30;;;;;;;10.20;2.05;;;;;;;32.63;28.54;101079.25;4972531;28;20487;-66
2021/05/06 10:43:19;;;;;;;14.32;2.45;;;;;;;32.66;28.61;101077.19;4973391;28;20043;-65
2021/05/06 10:46:03;;;;;;;23.90;3.95;;;;;;;32.37;29.26;101071.03;4973652;28;20043;-66
2021/05/06 10:48:57;;;;;;;13.33;2.87;;;;;;;32.54;29.32;101091.75;4960135;28;20043;-66
2021/05/06 10:51:45;;;;;;;11.80;2.83;;;;;;;32.17;30.00;101087.97;4973888;28;20132;-67
2021/05/06 10:54:34;;;;;;;117.35;12.57;;;;;;;31.52;31.26;101095.09;4973121;28;20122;-65
2021/05/06 10:57:04;;;;;;;13.38;2.88;;;;;;;31.25;31.66;101082.28;4973241;28;20053;-66
2021/05/06 10:59:40;;;;;;;11.20;2.25;;;;;;;31.10;31.90;101087.88;4973733;28;20074;-65
2021/05/06 11:02:08;;;;;;;11.80;2.40;;;;;;;31.13;31.84;101098.59;4968447;28;20126;-65
2021/05/06 11:04:37;;;;;;;16.52;2.53;;;;;;;31.19;31.71;101112.72;4972231;28;20069;-66
2021/05/06 11:07:12;;;;;;;13.38;2.08;;;;;;;31.00;32.31;101100.31;4971638;28;20127;-66
2021/05/06 11:09:56;;;;;;;24.75;3.83;;;;;;;30.82;32.47;101107.84;4973373;28;20047;-66
2021/05/06 11:12:36;;;;;;;16.53;2.93;;;;;;;31.09;31.86;101110.69;4974341;28;20046;-66
2021/05/06 11:15:29;;;;;;;12.65;2.53;;;;;;;31.67;31.09;101105.91;4972947;28;20427;-66
2021/05/06 11:17:58;;;;;;;11.30;1.83;;;;;;;32.29;30.46;101109.00;4966956;28;20058;-65
2021/05/06 11:20:53;;;;;;;9.10;1.52;;;;;;;32.43;30.21;101108.00;4965430;28;20039;-66
2021/05/06 11:23:35;;;;;;;12.35;2.50;;;;;;;32.71;29.42;101107.84;4956458;28;20038;-66
2021/05/06 11:26:15;;;;;;;10.52;2.33;;;;;;;32.82;29.10;101104.38;4958537;28;20058;-66
2021/05/06 11:28:52;;;;;;;14.95;2.53;;;;;;;33.01;28.53;101091.09;4963160;28;20407;-66
2021/05/06 11:31:51;;;;;;;10.02;1.75;;;;;;;32.86;28.01;101077.66;4964496;28;20046;-66
2021/05/06 11:34:50;;;;;;;10.48;2.33;;;;;;;32.44;28.12;101075.09;4966799;28;20122;-66
2021/05/06 11:37:23;;;;;;;10.95;1.65;;;;;;;32.98;27.86;101083.09;4972916;28;20121;-65
2021/05/06 11:40:00;;;;;;;12.63;2.47;;;;;;;33.07;27.86;101081.56;4967266;28;20484;-65
2021/05/06 11:42:36;;;;;;;12.73;2.30;;;;;;;32.81;27.91;101091.66;4958945;28;20043;-66
2021/05/06 11:45:15;;;;;;;8.30;1.52;;;;;;;32.82;27.97;101099.75;4969887;28;20049;-65
2021/05/06 11:47:43;;;;;;;10.80;2.20;;;;;;;32.86;28.51;101105.88;4972612;28;20220;-66
2021/05/06 11:50:22;;;;;;;14.80;2.50;;;;;;;32.86;28.80;101113.22;4972568;28;20035;-66
2021/05/06 11:52:50;;;;;;;14.23;2.35;;;;;;;32.33;29.94;101117.84;4973303;28;20043;-66
2021/05/06 11:55:34;;;;;;;11.45;2.60;;;;;;;32.18;30.51;101124.38;4971611;28;20042;-66
2021/05/06 11:58:03;;;;;;;15.40;2.40;;;;;;;31.88;30.74;101122.72;4972483;28;20101;-66
2021/05/06 12:00:32;;;;;;;11.68;2.40;;;;;;;31.39;31.90;101130.53;4965476;28;20043;-66
2021/05/06 12:03:02;;;;;;;8.77;2.10;;;;;;;31.80;31.28;101124.22;4962173;28;20118;-66
2021/05/06 12:06:02;;;;;;;11.95;2.30;;;;;;;31.88;31.97;101121.84;4965492;28;20455;-67
2021/05/06 12:08:32;;;;;;;15.98;2.15;;;;;;;31.40;32.71;101106.84;4911878;29;20036;-66
2021/05/06 12:11:01;;;;;;;11.25;3.00;;;;;;;31.61;32.43;101117.25;4912612;29;20553;-66
2021/05/06 12:13:30;;;;;;;11.52;2.58;;;;;;;32.07;31.84;101130.53;4940891;28;20415;-66
2021/05/06 12:16:14;;;;;;;11.95;2.38;;;;;;;32.61;31.42;101130.47;4963421;28;20495;-66
2021/05/06 12:18:43;;;;;;;6.82;1.88;;;;;;;32.67;31.16;101119.13;4972412;28;20046;-67
2021/05/06 12:21:11;;;;;;;11.18;1.88;;;;;;;32.55;30.71;101120.84;4971453;28;20041;-66
2021/05/06 12:23:49;;;;;;;14.95;1.60;;;;;;;32.47;31.04;101133.28;4966976;28;20046;-66
2021/05/06 12:26:17;;;;;;;11.80;2.08;;;;;;;32.36;31.13;101134.91;4961585;28;20097;-66
2021/05/06 12:28:45;;;;;;;8.35;1.80;;;;;;;32.13;30.88;101130.13;4968793;28;20076;-66
2021/05/06 12:31:13;;;;;;;15.02;2.10;;;;;;;31.99;30.96;101131.06;4969637;28;20045;-66
2021/05/06 12:33:40;;;;;;;14.95;3.25;;;;;;;32.05;30.78;101113.38;4965584;28;20403;-66
2021/05/06 12:36:13;;;;;;;14.30;2.55;;;;;;;31.98;30.98;101096.53;4942620;28;20039;-65
2021/05/06 12:38:40;;;;;;;11.02;2.05;;;;;;;32.18;30.58;101100.66;4932145;28;20065;-66
2021/05/06 12:41:08;;;;;;;11.93;1.90;;;;;;;32.16;30.63;101083.50;4942321;28;20126;-66
2021/05/06 12:43:42;;;;;;;10.57;2.42;;;;;;;32.23;30.64;101094.88;4939403;28;20094;-66
2021/05/06 12:46:11;;;;;;;10.80;2.42;;;;;;;32.18;30.31;101092.44;4939703;28;20040;-66
2021/05/06 12:48:40;;;;;;;9.93;1.95;;;;;;;32.20;29.51;101081.41;4940658;28;20043;-65
2021/05/06 12:51:09;;;;;;;11.63;2.05;;;;;;;32.28;29.60;101071.72;4934255;28;20531;-66
2021/05/06 12:53:37;;;;;;;7.55;1.65;;;;;;;32.28;29.15;101060.78;4938969;28;20075;-65
2021/05/06 12:56:05;;;;;;;7.25;1.20;;;;;;;32.30;29.06;101066.09;4931183;28;20063;-66
2021/05/06 12:58:35;;;;;;;14.02;1.92;;;;;;;32.25;29.00;101074.63;4935532;28;20043;-65
2021/05/06 13:01:11;;;;;;;11.07;1.35;;;;;;;32.24;28.93;101088.41;4932275;28;20039;-65
2021/05/06 13:03:42;;;;;;;9.00;2.13;;;;;;;32.23;29.14;101092.16;4948378;28;20051;-65
2021/05/06 13:06:12;;;;;;;6.85;1.70;;;;;;;32.30;29.09;101097.06;4931891;28;20087;-65
2021/05/06 13:08:40;;;;;;;6.60;1.58;;;;;;;32.03;29.40;101105.25;4936099;28;20134;-66
2021/05/06 13:11:10;;;;;;;7.68;1.75;;;;;;;30.75;31.00;101101.88;4935536;28;20043;-65
2021/05/06 13:13:42;;;;;;;15.60;2.28;;;;;;;30.06;32.32;101104.34;4952800;28;20057;-64
2021/05/06 13:16:11;;;;;;;13.23;1.80;;;;;;;30.15;32.22;101095.59;4956381;28;20115;-66
2021/05/06 13:18:38;;;;;;;13.23;2.40;;;;;;;30.02;32.60;101092.75;4951359;28;20036;-65
2021/05/06 13:21:07;;;;;;;12.20;1.77;;;;;;;29.58;33.93;101091.75;4940360;28;20039;-65
2021/05/06 13:23:35;;;;;;;14.68;2.45;;;;;;;29.23;34.74;101097.31;4937549;28;20036;-66
2021/05/06 13:26:04;;;;;;;13.38;2.00;;;;;;;29.50;35.20;101085.88;4947780;28;20039;-66
2021/05/06 13:28:43;;;;;;;11.88;2.25;;;;;;;29.92;34.95;101098.84;4939924;28;20531;-67
2021/05/06 13:31:15;;;;;;;10.43;1.75;;;;;;;29.90;34.90;101101.63;4936383;28;20122;-65
2021/05/06 13:33:42;;;;;;;13.65;2.17;;;;;;;29.19;36.15;101103.91;4939855;28;20508;-66
2021/05/06 13:36:11;;;;;;;12.07;2.40;;;;;;;28.73;37.48;101120.97;4942171;28;20043;-66
2021/05/06 13:38:50;;;;;;;12.90;2.28;;;;;;;29.00;37.09;101129.50;4934464;28;20063;-65
2021/05/06 13:41:18;;;;;;;12.60;2.05;;;;;;;28.89;37.00;101111.03;4935298;28;20435;-66
2021/05/06 13:43:47;;;;;;;14.43;2.08;;;;;;;29.19;36.32;101103.03;4936592;28;20108;-65
2021/05/06 13:46:15;;;;;;;12.02;2.17;;;;;;;29.53;35.65;101115.63;4939469;28;20083;-65
2021/05/06 13:48:43;;;;;;;13.93;2.00;;;;;;;29.60;35.23;101122.50;4960936;28;20067;-66
2021/05/06 13:51:11;;;;;;;11.02;2.08;;;;;;;29.89;34.98;101123.50;4946410;28;20035;-66
2021/05/06 13:53:39;;;;;;;12.25;2.15;;;;;;;29.95;34.46;101126.75;4934640;28;20067;-66
2021/05/06 13:56:08;;;;;;;10.82;1.98;;;;;;;29.98;34.18;101099.38;4940502;28;20123;-65
2021/05/06 13:58:37;;;;;;;7.93;1.63;;;;;;;30.20;33.58;101119.84;4948944;28;20039;-66
2021/05/06 14:01:07;;;;;;;13.50;1.73;;;;;;;30.49;32.85;101133.50;4972302;28;20403;-67
2021/05/06 14:03:35;;;;;;;11.50;2.05;;;;;;;30.46;32.88;101114.56;4974126;28;20093;-66
2021/05/06 14:06:03;;;;;;;8.20;1.35;;;;;;;30.18;33.02;101114.50;4974477;28;20122;-66
2021/05/06 14:08:31;;;;;;;10.45;1.80;;;;;;;30.15;33.04;101103.78;4973084;28;20039;-67
2021/05/06 14:10:58;;;;;;;8.82;2.00;;;;;;;30.20;32.77;101098.94;4974148;28;20388;-66
2021/05/06 14:13:27;;;;;;;10.02;2.38;;;;;;;30.13;32.26;101108.44;4974584;28;20042;-69
2021/05/06 14:15:55;;;;;;;9.15;1.70;;;;;;;29.96;32.51;101089.50;4971635;28;20557;-66
2021/05/06 14:18:22;;;;;;;8.20;1.40;;;;;;;29.79;32.49;101097.78;4974656;28;20521;-66